sensor_id;sensor_type;location;lat;lon;timestamp;P1;P4;P2;P0;N10;N4;N25;N1;N05;TS
78462;SPS30;67756;51.982;5.648;2024-01-15T00:01:43;1.5;1.4;1.2;0.8;;;;107.0;32.0;
78462;SPS30;67756;51.982;5.648;2024-01-15T00:04:12;2.1;1.9;1.6;1.1;;;;117.0;27.0;
78462;SPS30;67756;51.982;5.648;2024-01-15T00:06:41;1.9;1.7;1.4;1.0;;;;121.0;20.0;
78462;SPS30;67756;51.982;5.648;2024-01-15T00:09:10;2.1;1.9;1.5;1.1;;;;120.0;20.0;
78462;SPS30;67756;51.982;5.648;2024-01-15T00:11:38;2.1;2.0;1.6;1.1;;;;120.0;20.0;
78462;SPS30;67756;51.982;5.648;2024-01-15T00:14:09;2.0;1.9;1.5;1.0;;;;120.0;21.0;
78462;SPS30;67756;51.982;5.648;2024-01-15T00:16:39;1.8;1.6;1.3;0.9;;;;119.0;26.0;
78462;SPS30;67756;51.982;5.648;2024-01-15T00:19:08;2.4;2.2;1.7;1.1;;;;128.0;27.0;
78462;SPS30;67756;51.982;5.648;2024-01-15T00:21:37;2.3;2.1;1.7;1.0;;;;132.0;24.0;
78462;SPS30;67756;51.982;5.648;2024-01-15T00:24:06;2.6;2.4;1.9;1.2;;;;140.0;17.0;
78462;SPS30;67756;51.982;5.648;2024-01-15T00:26:34;2.0;1.8;1.4;0.9;;;;145.0;10.0;
78462;SPS30;67756;51.982;5.648;2024-01-15T00:29:03;2.2;2.0;1.6;1.1;;;;146.0;8.0;
78462;SPS30;67756;51.982;5.648;2024-01-15T00:31:32;1.7;1.5;1.2;0.8;;;;144.0;8.0;
78462;SPS30;67756;51.982;5.648;2024-01-15T00:34:03;2.3;2.1;1.7;1.2;;;;148.0;9.0;
78462;SPS30;67756;51.982;5.648;2024-01-15T00:36:31;2.3;2.1;1.7;1.1;;;;149.0;8.0;
78462;SPS30;67756;51.982;5.648;2024-01-15T00:39:01;2.5;2.3;1.8;1.2;;;;150.0;8.0;
78462;SPS30;67756;51.982;5.648;2024-01-15T00:41:33;2.1;1.9;1.6;1.0;;;;150.0;9.0;
78462;SPS30;67756;51.982;5.648;2024-01-15T00:44:06;2.3;2.1;1.7;1.2;;;;148.0;10.0;
78462;SPS30;67756;51.982;5.648;2024-01-15T00:46:35;1.8;1.7;1.3;0.9;;;;147.0;11.0;
78462;SPS30;67756;51.982;5.648;2024-01-15T00:49:21;2.1;1.9;1.5;1.0;;;;147.0;11.0;
78462;SPS30;67756;51.982;5.648;2024-01-15T00:51:53;2.6;2.4;1.9;1.3;;;;147.0;10.0;
78462;SPS30;67756;51.982;5.648;2024-01-15T00:54:22;2.3;2.1;1.7;1.1;;;;146.0;9.0;
78462;SPS30;67756;51.982;5.648;2024-01-15T00:56:53;1.8;1.7;1.3;0.8;;;;139.0;9.0;
78462;SPS30;67756;51.982;5.648;2024-01-15T00:59:23;1.4;1.3;1.0;0.7;;;;123.0;11.0;
78462;SPS30;67756;51.982;5.648;2024-01-15T01:01:51;2.3;2.1;1.7;1.2;;;;117.0;20.0;
78462;SPS30;67756;51.982;5.648;2024-01-15T01:04:21;2.3;2.1;1.7;1.1;;;;116.0;26.0;
78462;SPS30;67756;51.982;5.648;2024-01-15T01:06:50;2.0;1.8;1.5;1.0;;;;115.0;29.0;
78462;SPS30;67756;51.982;5.648;2024-01-15T01:09:18;1.9;1.7;1.4;0.9;;;;113.0;30.0;
78462;SPS30;67756;51.982;5.648;2024-01-15T01:11:47;2.2;2.0;1.7;1.1;;;;112.0;29.0;
78462;SPS30;67756;51.982;5.648;2024-01-15T01:14:15;2.9;2.6;2.2;1.5;;;;113.0;27.0;
78462;SPS30;67756;51.982;5.648;2024-01-15T01:16:44;2.2;2.0;1.6;1.1;;;;112.0;26.0;
78462;SPS30;67756;51.982;5.648;2024-01-15T01:19:12;2.6;2.4;1.9;1.3;;;;107.0;31.0;
78462;SPS30;67756;51.982;5.648;2024-01-15T01:21:41;2.3;2.1;1.7;1.1;;;;102.0;47.0;
78462;SPS30;67756;51.982;5.648;2024-01-15T01:24:10;2.4;2.2;1.8;1.2;;;;101.0;55.0;
78462;SPS30;67756;51.982;5.648;2024-01-15T01:26:39;2.2;2.0;1.6;1.1;;;;100.0;60.0;
78462;SPS30;67756;51.982;5.648;2024-01-15T01:29:07;2.0;1.8;1.4;1.0;;;;101.0;55.0;
78462;SPS30;67756;51.982;5.648;2024-01-15T01:31:36;2.3;2.1;1.7;1.1;;;;102.0;53.0;
78462;SPS30;67756;51.982;5.648;2024-01-15T01:34:09;2.8;2.5;2.1;1.4;;;;102.0;52.0;
78462;SPS30;67756;51.982;5.648;2024-01-15T01:36:43;2.9;2.6;2.2;1.5;;;;103.0;48.0;
78462;SPS30;67756;51.982;5.648;2024-01-15T01:39:12;3.1;2.9;2.3;1.6;;;;101.0;50.0;
78462;SPS30;67756;51.982;5.648;2024-01-15T01:41:43;2.8;2.5;2.0;1.3;;;;102.0;49.0;
78462;SPS30;67756;51.982;5.648;2024-01-15T01:44:11;3.1;2.8;2.2;1.4;;;;107.0;34.0;
78462;SPS30;67756;51.982;5.648;2024-01-15T01:46:40;3.2;2.9;2.2;1.4;;;;112.0;25.0;
78462;SPS30;67756;51.982;5.648;2024-01-15T01:49:09;3.4;3.1;2.4;1.5;;;;116.0;22.0;
78462;SPS30;67756;51.982;5.648;2024-01-15T01:51:38;3.0;2.7;2.1;1.3;;;;116.0;25.0;
78462;SPS30;67756;51.982;5.648;2024-01-15T01:54:07;2.9;2.7;2.1;1.3;;;;121.0;26.0;
78462;SPS30;67756;51.982;5.648;2024-01-15T01:56:39;3.8;3.4;2.6;1.6;;;;128.0;25.0;
78462;SPS30;67756;51.982;5.648;2024-01-15T01:59:09;4.0;3.6;2.8;1.6;;;;135.0;22.0;
78462;SPS30;67756;51.982;5.648;2024-01-15T02:01:40;3.3;2.9;2.2;1.3;;;;139.0;20.0;
78462;SPS30;67756;51.982;5.648;2024-01-15T02:04:09;3.8;3.4;2.6;1.5;;;;143.0;19.0;
78462;SPS30;67756;51.982;5.648;2024-01-15T02:06:39;3.8;3.4;2.6;1.5;;;;150.0;18.0;
78462;SPS30;67756;51.982;5.648;2024-01-15T02:09:07;3.5;3.2;2.4;1.3;;;;154.0;18.0;
78462;SPS30;67756;51.982;5.648;2024-01-15T02:11:37;3.9;3.5;2.7;1.5;;;;156.0;18.0;
78462;SPS30;67756;51.982;5.648;2024-01-15T02:14:05;5.6;5.0;3.8;2.1;;;;156.0;19.0;
78462;SPS30;67756;51.982;5.648;2024-01-15T02:16:33;3.9;3.5;2.6;1.5;;;;156.0;25.0;
78462;SPS30;67756;51.982;5.648;2024-01-15T02:19:02;5.4;4.8;3.7;2.1;;;;163.0;29.0;
78462;SPS30;67756;51.982;5.648;2024-01-15T02:21:30;3.2;2.9;2.2;1.2;;;;165.0;29.0;
78462;SPS30;67756;51.982;5.648;2024-01-15T02:23:59;3.7;3.3;2.5;1.5;;;;164.0;32.0;
78462;SPS30;67756;51.982;5.648;2024-01-15T02:26:29;4.7;4.2;3.2;1.8;;;;165.0;36.0;
78462;SPS30;67756;51.982;5.648;2024-01-15T02:29:02;3.3;2.9;2.2;1.2;;;;163.0;45.0;
78462;SPS30;67756;51.982;5.648;2024-01-15T02:31:31;5.4;4.8;3.6;2.0;;;;162.0;54.0;
78462;SPS30;67756;51.982;5.648;2024-01-15T02:33:59;4.0;3.6;2.6;1.5;;;;161.0;54.0;
78462;SPS30;67756;51.982;5.648;2024-01-15T02:36:30;4.4;3.9;2.9;1.6;;;;162.0;53.0;
78462;SPS30;67756;51.982;5.648;2024-01-15T02:39:01;4.4;3.9;3.0;1.7;;;;165.0;52.0;
78462;SPS30;67756;51.982;5.648;2024-01-15T02:41:29;3.8;3.4;2.6;1.6;;;;170.0;47.0;
78462;SPS30;67756;51.982;5.648;2024-01-15T02:43:57;4.3;3.9;2.9;1.7;;;;178.0;33.0;
78462;SPS30;67756;51.982;5.648;2024-01-15T02:46:26;3.0;2.7;2.1;1.2;;;;183.0;24.0;
78462;SPS30;67756;51.982;5.648;2024-01-15T02:48:54;3.8;3.4;2.6;1.6;;;;186.0;20.0;
78462;SPS30;67756;51.982;5.648;2024-01-15T02:51:23;3.6;3.2;2.5;1.5;;;;189.0;16.0;
78462;SPS30;67756;51.982;5.648;2024-01-15T02:53:52;3.5;3.2;2.4;1.4;;;;193.0;13.0;
78462;SPS30;67756;51.982;5.648;2024-01-15T02:56:20;2.9;2.6;2.0;1.1;;;;196.0;11.0;
78462;SPS30;67756;51.982;5.648;2024-01-15T02:58:49;3.0;2.7;2.0;1.1;;;;198.0;10.0;
78462;SPS30;67756;51.982;5.648;2024-01-15T03:01:19;2.9;2.6;1.9;1.1;;;;203.0;9.0;
78462;SPS30;67756;51.982;5.648;2024-01-15T03:03:48;3.1;2.7;2.0;1.1;;;;207.0;8.0;
78462;SPS30;67756;51.982;5.648;2024-01-15T03:06:17;2.6;2.3;1.7;0.9;;;;212.0;8.0;
78462;SPS30;67756;51.982;5.648;2024-01-15T03:08:45;3.2;2.9;2.1;1.2;;;;216.0;8.0;
78462;SPS30;67756;51.982;5.648;2024-01-15T03:11:14;2.8;2.5;1.8;1.0;;;;219.0;7.0;
78462;SPS30;67756;51.982;5.648;2024-01-15T03:13:42;3.7;3.3;2.5;1.4;;;;219.0;7.0;
78462;SPS30;67756;51.982;5.648;2024-01-15T03:16:11;2.5;2.3;1.7;1.0;;;;220.0;8.0;
78462;SPS30;67756;51.982;5.648;2024-01-15T03:18:40;2.9;2.6;1.9;1.1;;;;217.0;9.0;
78462;SPS30;67756;51.982;5.648;2024-01-15T03:21:08;3.7;3.3;2.5;1.4;;;;202.0;20.0;
78462;SPS30;67756;51.982;5.648;2024-01-15T03:23:37;5.2;4.6;3.4;1.9;;;;186.0;51.0;
78462;SPS30;67756;51.982;5.648;2024-01-15T03:26:06;3.4;3.0;2.3;1.3;;;;189.0;62.0;
78462;SPS30;67756;51.982;5.648;2024-01-15T03:28:34;2.7;2.4;1.8;1.0;;;;190.0;64.0;
78462;SPS30;67756;51.982;5.648;2024-01-15T03:31:03;4.3;3.8;2.8;1.5;;;;190.0;65.0;
78462;SPS30;67756;51.982;5.648;2024-01-15T03:33:31;3.2;2.9;2.1;1.1;;;;189.0;69.0;
78462;SPS30;67756;51.982;5.648;2024-01-15T03:36:00;3.8;3.4;2.5;1.3;;;;191.0;63.0;
78462;SPS30;67756;51.982;5.648;2024-01-15T03:38:29;3.3;3.0;2.1;1.1;;;;196.0;59.0;
78462;SPS30;67756;51.982;5.648;2024-01-15T03:40:57;3.9;3.5;2.5;1.3;;;;193.0;60.0;
78462;SPS30;67756;51.982;5.648;2024-01-15T03:43:26;3.7;3.3;2.4;1.3;;;;190.0;73.0;
78462;SPS30;67756;51.982;5.648;2024-01-15T03:45:55;3.6;3.2;2.4;1.3;;;;191.0;76.0;
78462;SPS30;67756;51.982;5.648;2024-01-15T03:48:24;3.4;3.1;2.3;1.3;;;;198.0;72.0;
78462;SPS30;67756;51.982;5.648;2024-01-15T03:50:52;3.6;3.2;2.4;1.4;;;;195.0;80.0;
78462;SPS30;67756;51.982;5.648;2024-01-15T03:53:21;3.6;3.2;2.4;1.4;;;;193.0;91.0;
78462;SPS30;67756;51.982;5.648;2024-01-15T03:55:49;3.3;3.0;2.3;1.3;;;;199.0;86.0;
78462;SPS30;67756;51.982;5.648;2024-01-15T03:58:18;3.0;2.7;2.1;1.3;;;;219.0;52.0;
78462;SPS30;67756;51.982;5.648;2024-01-15T04:00:49;2.6;2.4;1.9;1.2;;;;221.0;38.0;
78462;SPS30;67756;51.982;5.648;2024-01-15T04:03:17;2.8;2.6;2.1;1.4;;;;218.0;43.0;
78462;SPS30;67756;51.982;5.648;2024-01-15T04:05:46;2.4;2.2;1.8;1.2;;;;215.0;48.0;
78462;SPS30;67756;51.982;5.648;2024-01-15T04:08:14;2.6;2.3;1.8;1.2;;;;211.0;73.0;
78462;SPS30;67756;51.982;5.648;2024-01-15T04:10:43;2.4;2.1;1.7;1.1;;;;210.0;81.0;
78462;SPS30;67756;51.982;5.648;2024-01-15T04:13:11;2.7;2.5;1.9;1.2;;;;222.0;73.0;
78462;SPS30;67756;51.982;5.648;2024-01-15T04:15:40;3.2;2.9;2.2;1.4;;;;221.0;59.0;
78462;SPS30;67756;51.982;5.648;2024-01-15T04:18:09;3.6;3.3;2.6;1.6;;;;219.0;52.0;
78462;SPS30;67756;51.982;5.648;2024-01-15T04:20:37;3.0;2.7;2.1;1.3;;;;214.0;49.0;
78462;SPS30;67756;51.982;5.648;2024-01-15T04:23:06;3.0;2.7;2.1;1.3;;;;200.0;49.0;
78462;SPS30;67756;51.982;5.648;2024-01-15T04:25:35;2.8;2.6;2.0;1.2;;;;198.0;47.0;
78462;SPS30;67756;51.982;5.648;2024-01-15T04:28:04;3.3;3.0;2.2;1.3;;;;200.0;32.0;
78462;SPS30;67756;51.982;5.648;2024-01-15T04:30:34;2.9;2.6;2.0;1.1;;;;202.0;25.0;
78462;SPS30;67756;51.982;5.648;2024-01-15T04:33:04;2.7;2.5;1.9;1.1;;;;208.0;20.0;
78462;SPS30;67756;51.982;5.648;2024-01-15T04:35:33;2.5;2.2;1.7;1.0;;;;213.0;17.0;
78462;SPS30;67756;51.982;5.648;2024-01-15T04:38:02;2.7;2.4;1.9;1.1;;;;214.0;19.0;
78462;SPS30;67756;51.982;5.648;2024-01-15T04:40:31;3.0;2.7;2.1;1.2;;;;213.0;22.0;
78462;SPS30;67756;51.982;5.648;2024-01-15T04:43:00;2.6;2.3;1.8;1.0;;;;212.0;24.0;
78462;SPS30;67756;51.982;5.648;2024-01-15T04:45:29;2.7;2.4;1.8;1.1;;;;205.0;29.0;
78462;SPS30;67756;51.982;5.648;2024-01-15T04:47:57;3.4;3.0;2.3;1.3;;;;200.0;44.0;
78462;SPS30;67756;51.982;5.648;2024-01-15T04:50:28;3.9;3.5;2.6;1.5;;;;200.0;52.0;
78462;SPS30;67756;51.982;5.648;2024-01-15T04:52:57;2.2;2.0;1.5;0.8;;;;202.0;51.0;
78462;SPS30;67756;51.982;5.648;2024-01-15T04:55:25;3.5;3.2;2.4;1.3;;;;211.0;47.0;
78462;SPS30;67756;51.982;5.648;2024-01-15T04:57:54;2.8;2.5;1.9;1.1;;;;215.0;39.0;
78462;SPS30;67756;51.982;5.648;2024-01-15T05:00:22;3.1;2.8;2.1;1.2;;;;216.0;38.0;
78462;SPS30;67756;51.982;5.648;2024-01-15T05:02:51;3.8;3.4;2.6;1.5;;;;219.0;38.0;
78462;SPS30;67756;51.982;5.648;2024-01-15T05:05:20;2.6;2.3;1.8;1.1;;;;226.0;37.0;
78462;SPS30;67756;51.982;5.648;2024-01-15T05:07:49;3.1;2.8;2.2;1.3;;;;230.0;36.0;
78462;SPS30;67756;51.982;5.648;2024-01-15T05:10:19;2.6;2.3;1.7;1.0;;;;232.0;35.0;
78462;SPS30;67756;51.982;5.648;2024-01-15T05:12:48;3.7;3.3;2.5;1.4;;;;235.0;35.0;
78462;SPS30;67756;51.982;5.648;2024-01-15T05:15:16;2.8;2.5;1.9;1.1;;;;243.0;34.0;
78462;SPS30;67756;51.982;5.648;2024-01-15T05:17:45;2.3;2.0;1.5;0.9;;;;242.0;34.0;
78462;SPS30;67756;51.982;5.648;2024-01-15T05:20:13;2.0;1.8;1.3;0.8;;;;240.0;46.0;
78462;SPS30;67756;51.982;5.648;2024-01-15T05:22:42;2.0;1.8;1.3;0.8;;;;239.0;58.0;
78462;SPS30;67756;51.982;5.648;2024-01-15T05:25:10;2.3;2.1;1.6;0.9;;;;243.0;59.0;
78462;SPS30;67756;51.982;5.648;2024-01-15T05:27:39;2.6;2.3;1.7;1.0;;;;254.0;55.0;
78462;SPS30;67756;51.982;5.648;2024-01-15T05:30:08;2.2;2.0;1.5;0.9;;;;260.0;52.0;
78462;SPS30;67756;51.982;5.648;2024-01-15T05:32:37;2.1;1.9;1.4;0.8;;;;259.0;52.0;
78462;SPS30;67756;51.982;5.648;2024-01-15T05:35:05;2.5;2.3;1.7;1.0;;;;266.0;50.0;
78462;SPS30;67756;51.982;5.648;2024-01-15T05:37:34;2.2;2.0;1.5;0.9;;;;272.0;44.0;
78462;SPS30;67756;51.982;5.648;2024-01-15T05:40:03;2.2;2.0;1.5;0.9;;;;275.0;43.0;
78462;SPS30;67756;51.982;5.648;2024-01-15T05:42:32;2.4;2.2;1.7;1.0;;;;275.0;42.0;
78462;SPS30;67756;51.982;5.648;2024-01-15T05:45:03;2.6;2.3;1.8;1.1;;;;277.0;43.0;
78462;SPS30;67756;51.982;5.648;2024-01-15T05:47:32;2.2;2.0;1.6;1.0;;;;275.0;44.0;
78462;SPS30;67756;51.982;5.648;2024-01-15T05:50:01;1.6;1.5;1.2;0.8;;;;276.0;45.0;
78462;SPS30;67756;51.982;5.648;2024-01-15T05:52:30;1.4;1.3;1.0;0.7;;;;276.0;49.0;
78462;SPS30;67756;51.982;5.648;2024-01-15T05:54:59;2.0;1.8;1.5;1.0;;;;278.0;52.0;
78462;SPS30;67756;51.982;5.648;2024-01-15T05:57:30;1.5;1.4;1.1;0.7;;;;279.0;52.0;
78462;SPS30;67756;51.982;5.648;2024-01-15T05:59:59;1.4;1.3;1.1;0.8;;;;280.0;54.0;
78462;SPS30;67756;51.982;5.648;2024-01-15T06:02:28;1.6;1.5;1.2;0.8;;;;279.0;95.0;
78462;SPS30;67756;51.982;5.648;2024-01-15T06:04:57;1.8;1.6;1.3;1.0;;;;279.0;76.0;
78462;SPS30;67756;51.982;5.648;2024-01-15T06:07:26;1.1;1.1;0.9;0.6;;;;280.0;71.0;
78462;SPS30;67756;51.982;5.648;2024-01-15T06:09:56;1.8;1.7;1.4;1.0;;;;284.0;50.0;
78462;SPS30;67756;51.982;5.648;2024-01-15T06:12:27;1.3;1.3;1.1;0.8;;;;286.0;47.0;
78462;SPS30;67756;51.982;5.648;2024-01-15T06:14:56;1.4;1.3;1.1;0.8;;;;283.0;52.0;
78462;SPS30;67756;51.982;5.648;2024-01-15T06:17:24;1.8;1.7;1.4;1.1;;;;283.0;54.0;
78462;SPS30;67756;51.982;5.648;2024-01-15T06:19:53;1.6;1.5;1.3;1.0;;;;280.0;52.0;
78462;SPS30;67756;51.982;5.648;2024-01-15T06:22:23;2.0;1.9;1.7;1.3;;;;273.0;50.0;
78462;SPS30;67756;51.982;5.648;2024-01-15T06:24:51;1.8;1.7;1.6;1.3;;;;272.0;46.0;
78462;SPS30;67756;51.982;5.648;2024-01-15T06:27:22;2.0;1.9;1.8;1.6;;;;260.0;46.0;
78462;SPS30;67756;51.982;5.648;2024-01-15T06:29:50;2.0;1.9;1.8;1.7;;;;257.0;58.0;
78462;SPS30;67756;51.982;5.648;2024-01-15T06:32:19;2.3;2.3;2.2;2.1;;;;258.0;66.0;
78462;SPS30;67756;51.982;5.648;2024-01-15T06:34:47;2.4;2.4;2.4;2.2;;;;261.0;64.0;
78462;SPS30;67756;51.982;5.648;2024-01-15T06:37:16;2.9;2.9;2.9;2.7;;;;261.0;69.0;
78462;SPS30;67756;51.982;5.648;2024-01-15T06:39:46;3.3;3.3;3.3;3.1;;;;260.0;68.0;
78462;SPS30;67756;51.982;5.648;2024-01-15T06:42:14;3.5;3.5;3.4;3.2;;;;262.0;37.0;
78462;SPS30;67756;51.982;5.648;2024-01-15T06:44:43;3.9;3.8;3.8;3.6;;;;262.0;30.0;
78462;SPS30;67756;51.982;5.648;2024-01-15T06:47:11;4.1;4.1;4.1;3.9;;;;260.0;32.0;
78462;SPS30;67756;51.982;5.648;2024-01-15T06:49:43;3.3;3.3;3.3;3.1;;;;249.0;38.0;
78462;SPS30;67756;51.982;5.648;2024-01-15T06:52:12;4.4;4.4;4.4;4.2;;;;251.0;42.0;
78462;SPS30;67756;51.982;5.648;2024-01-15T06:54:42;4.3;4.3;4.3;4.1;;;;254.0;42.0;
78462;SPS30;67756;51.982;5.648;2024-01-15T06:57:11;3.8;3.8;3.6;3.3;;;;257.0;44.0;
78462;SPS30;67756;51.982;5.648;2024-01-15T06:59:39;4.0;4.0;4.0;3.8;;;;257.0;62.0;
78462;SPS30;67756;51.982;5.648;2024-01-15T07:02:08;2.8;2.8;2.8;2.7;;;;245.0;89.0;
78462;SPS30;67756;51.982;5.648;2024-01-15T07:04:37;3.2;3.2;3.2;3.0;;;;239.0;107.0;
78462;SPS30;67756;51.982;5.648;2024-01-15T07:07:06;3.0;3.0;3.0;2.9;;;;239.0;121.0;
78462;SPS30;67756;51.982;5.648;2024-01-15T07:09:34;3.1;3.1;3.1;2.9;;;;246.0;112.0;
78462;SPS30;67756;51.982;5.648;2024-01-15T07:12:03;3.4;3.4;3.4;3.3;;;;255.0;108.0;
78462;SPS30;67756;51.982;5.648;2024-01-15T07:14:32;2.8;2.8;2.8;2.6;;;;263.0;102.0;
78462;SPS30;67756;51.982;5.648;2024-01-15T07:17:01;3.1;3.1;3.1;2.9;;;;262.0;95.0;
78462;SPS30;67756;51.982;5.648;2024-01-15T07:19:30;3.0;3.0;3.0;2.9;;;;264.0;81.0;
78462;SPS30;67756;51.982;5.648;2024-01-15T07:21:59;2.9;2.9;2.9;2.7;;;;260.0;87.0;
78462;SPS30;67756;51.982;5.648;2024-01-15T07:24:28;3.0;3.0;3.0;2.8;;;;259.0;107.0;
78462;SPS30;67756;51.982;5.648;2024-01-15T07:26:56;2.8;2.8;2.8;2.7;;;;257.0;113.0;
78462;SPS30;67756;51.982;5.648;2024-01-15T07:29:25;3.0;3.0;3.0;2.8;;;;248.0;121.0;
78462;SPS30;67756;51.982;5.648;2024-01-15T07:31:55;2.6;2.6;2.6;2.5;;;;254.0;112.0;
78462;SPS30;67756;51.982;5.648;2024-01-15T07:34:24;2.4;2.4;2.4;2.3;;;;234.0;139.0;
78462;SPS30;67756;51.982;5.648;2024-01-15T07:36:53;2.5;2.5;2.5;2.4;;;;230.0;138.0;
78462;SPS30;67756;51.982;5.648;2024-01-15T07:39:22;2.3;2.3;2.3;2.2;;;;236.0;128.0;
78462;SPS30;67756;51.982;5.648;2024-01-15T07:41:51;2.7;2.7;2.7;2.6;;;;241.0;124.0;
78462;SPS30;67756;51.982;5.648;2024-01-15T07:44:20;2.8;2.8;2.8;2.7;;;;244.0;133.0;
78462;SPS30;67756;51.982;5.648;2024-01-15T07:46:50;2.8;2.8;2.8;2.6;;;;251.0;144.0;
78462;SPS30;67756;51.982;5.648;2024-01-15T07:49:19;2.9;2.9;2.9;2.8;;;;262.0;126.0;
78462;SPS30;67756;51.982;5.648;2024-01-15T07:51:50;2.5;2.5;2.5;2.4;;;;261.0;90.0;
78462;SPS30;67756;51.982;5.648;2024-01-15T07:54:19;2.2;2.2;2.2;2.1;;;;283.0;49.0;
78462;SPS30;67756;51.982;5.648;2024-01-15T07:56:57;2.0;2.0;2.0;1.9;;;;285.0;44.0;
78462;SPS30;67756;51.982;5.648;2024-01-15T07:59:29;2.0;2.0;2.0;1.9;;;;298.0;36.0;
78462;SPS30;67756;51.982;5.648;2024-01-15T08:01:58;2.0;2.0;2.0;2.0;;;;297.0;37.0;
78462;SPS30;67756;51.982;5.648;2024-01-15T08:04:28;2.6;2.6;2.6;2.5;;;;292.0;52.0;
78462;SPS30;67756;51.982;5.648;2024-01-15T08:06:59;2.3;2.3;2.3;2.2;;;;297.0;74.0;
78462;SPS30;67756;51.982;5.648;2024-01-15T08:09:29;2.3;2.3;2.3;2.2;;;;298.0;74.0;
78462;SPS30;67756;51.982;5.648;2024-01-15T08:11:57;2.7;2.7;2.7;2.6;;;;295.0;84.0;
78462;SPS30;67756;51.982;5.648;2024-01-15T08:14:26;3.0;3.0;3.0;2.9;;;;295.0;81.0;
78462;SPS30;67756;51.982;5.648;2024-01-15T08:16:55;3.2;3.2;3.2;3.0;;;;295.0;72.0;
78462;SPS30;67756;51.982;5.648;2024-01-15T08:19:23;3.4;3.4;3.4;3.2;;;;289.0;58.0;
78462;SPS30;67756;51.982;5.648;2024-01-15T08:21:52;3.0;3.0;3.0;2.8;;;;271.0;57.0;
78462;SPS30;67756;51.982;5.648;2024-01-15T08:24:21;3.0;3.0;3.0;2.8;;;;258.0;56.0;
78462;SPS30;67756;51.982;5.648;2024-01-15T08:26:50;2.4;2.4;2.4;2.3;;;;258.0;51.0;
78462;SPS30;67756;51.982;5.648;2024-01-15T08:29:19;2.1;2.1;2.1;2.0;;;;252.0;51.0;
78462;SPS30;67756;51.982;5.648;2024-01-15T08:31:50;2.6;2.6;2.6;2.4;;;;240.0;73.0;
78462;SPS30;67756;51.982;5.648;2024-01-15T08:34:19;2.4;2.4;2.4;2.3;;;;216.0;106.0;
78462;SPS30;67756;51.982;5.648;2024-01-15T08:36:47;2.8;2.8;2.8;2.7;;;;200.0;121.0;
78462;SPS30;67756;51.982;5.648;2024-01-15T08:39:16;2.5;2.5;2.5;2.4;;;;181.0;137.0;
78462;SPS30;67756;51.982;5.648;2024-01-15T08:41:45;2.5;2.5;2.5;2.4;;;;185.0;143.0;
78462;SPS30;67756;51.982;5.648;2024-01-15T08:44:14;2.8;2.8;2.8;2.7;;;;200.0;126.0;
78462;SPS30;67756;51.982;5.648;2024-01-15T08:46:43;2.9;2.9;2.9;2.8;;;;204.0;122.0;
78462;SPS30;67756;51.982;5.648;2024-01-15T08:49:11;2.8;2.8;2.8;2.6;;;;221.0;113.0;
78462;SPS30;67756;51.982;5.648;2024-01-15T08:51:40;2.9;2.9;2.9;2.7;;;;230.0;112.0;
78462;SPS30;67756;51.982;5.648;2024-01-15T08:54:08;3.5;3.5;3.5;3.4;;;;232.0;112.0;
78462;SPS30;67756;51.982;5.648;2024-01-15T08:56:39;3.5;3.5;3.5;3.3;;;;231.0;117.0;
78462;SPS30;67756;51.982;5.648;2024-01-15T08:59:08;3.5;3.5;3.5;3.3;;;;233.0;119.0;
78462;SPS30;67756;51.982;5.648;2024-01-15T09:01:37;3.7;3.7;3.7;3.5;;;;230.0;121.0;
78462;SPS30;67756;51.982;5.648;2024-01-15T09:04:06;3.3;3.3;3.3;3.1;;;;219.0;120.0;
78462;SPS30;67756;51.982;5.648;2024-01-15T09:06:35;3.1;3.1;3.1;3.0;;;;218.0;118.0;
78462;SPS30;67756;51.982;5.648;2024-01-15T09:09:03;3.7;3.7;3.7;3.5;;;;182.0;155.0;
78462;SPS30;67756;51.982;5.648;2024-01-15T09:11:32;3.7;3.7;3.7;3.5;;;;164.0;169.0;
78462;SPS30;67756;51.982;5.648;2024-01-15T09:14:01;3.1;3.1;3.1;2.9;;;;186.0;151.0;
78462;SPS30;67756;51.982;5.648;2024-01-15T09:16:30;2.9;2.9;2.9;2.7;;;;192.0;111.0;
78462;SPS30;67756;51.982;5.648;2024-01-15T09:18:59;2.4;2.4;2.4;2.3;;;;196.0;116.0;
78462;SPS30;67756;51.982;5.648;2024-01-15T09:21:28;1.9;1.9;1.9;1.8;;;;198.0;121.0;
78462;SPS30;67756;51.982;5.648;2024-01-15T09:23:56;1.7;1.7;1.7;1.6;;;;213.0;108.0;
78462;SPS30;67756;51.982;5.648;2024-01-15T09:26:25;1.7;1.7;1.7;1.6;;;;215.0;107.0;
78462;SPS30;67756;51.982;5.648;2024-01-15T09:28:53;1.7;1.6;1.6;1.5;;;;220.0;103.0;
78462;SPS30;67756;51.982;5.648;2024-01-15T09:31:22;1.8;1.8;1.7;1.6;;;;227.0;85.0;
78462;SPS30;67756;51.982;5.648;2024-01-15T09:33:50;1.6;1.5;1.5;1.4;;;;229.0;77.0;
78462;SPS30;67756;51.982;5.648;2024-01-15T09:36:22;1.4;1.4;1.4;1.2;;;;238.0;44.0;
78462;SPS30;67756;51.982;5.648;2024-01-15T09:38:51;1.1;1.1;1.1;1.0;;;;239.0;31.0;
78462;SPS30;67756;51.982;5.648;2024-01-15T09:41:20;1.6;1.6;1.5;1.4;;;;239.0;27.0;
78462;SPS30;67756;51.982;5.648;2024-01-15T09:43:48;0.9;0.9;0.9;0.8;;;;239.0;24.0;
78462;SPS30;67756;51.982;5.648;2024-01-15T09:46:18;1.0;0.9;0.9;0.8;;;;242.0;21.0;
78462;SPS30;67756;51.982;5.648;2024-01-15T09:48:47;0.8;0.7;0.7;0.6;;;;248.0;20.0;
78462;SPS30;67756;51.982;5.648;2024-01-15T09:51:15;1.0;1.0;1.0;0.9;;;;252.0;19.0;
78462;SPS30;67756;51.982;5.648;2024-01-15T09:53:45;1.1;1.1;1.0;0.9;;;;251.0;21.0;
78462;SPS30;67756;51.982;5.648;2024-01-15T09:56:16;1.0;1.0;1.0;0.9;;;;250.0;25.0;
78462;SPS30;67756;51.982;5.648;2024-01-15T09:58:45;1.7;1.7;1.6;1.5;;;;256.0;27.0;
78462;SPS30;67756;51.982;5.648;2024-01-15T10:01:15;1.6;1.6;1.5;1.4;;;;256.0;29.0;
78462;SPS30;67756;51.982;5.648;2024-01-15T10:03:45;1.8;1.8;1.7;1.6;;;;256.0;34.0;
78462;SPS30;67756;51.982;5.648;2024-01-15T10:06:16;1.8;1.8;1.8;1.6;;;;254.0;37.0;
78462;SPS30;67756;51.982;5.648;2024-01-15T10:08:47;1.7;1.7;1.6;1.5;;;;251.0;40.0;
78462;SPS30;67756;51.982;5.648;2024-01-15T10:11:16;1.9;1.8;1.8;1.6;;;;244.0;46.0;
78462;SPS30;67756;51.982;5.648;2024-01-15T10:13:45;1.6;1.6;1.5;1.4;;;;238.0;53.0;
78462;SPS30;67756;51.982;5.648;2024-01-15T10:16:18;2.0;2.0;1.8;1.6;;;;232.0;59.0;
78462;SPS30;67756;51.982;5.648;2024-01-15T10:18:48;1.7;1.6;1.5;1.3;;;;215.0;66.0;
78462;SPS30;67756;51.982;5.648;2024-01-15T10:21:19;2.4;2.4;2.2;2.0;;;;212.0;63.0;
78462;SPS30;67756;51.982;5.648;2024-01-15T10:23:47;2.6;2.6;2.5;2.3;;;;211.0;53.0;
78462;SPS30;67756;51.982;5.648;2024-01-15T10:26:16;2.8;2.8;2.7;2.5;;;;211.0;38.0;
78462;SPS30;67756;51.982;5.648;2024-01-15T10:28:45;2.6;2.6;2.6;2.4;;;;213.0;34.0;
78462;SPS30;67756;51.982;5.648;2024-01-15T10:31:19;3.0;2.9;2.9;2.7;;;;215.0;31.0;
78462;SPS30;67756;51.982;5.648;2024-01-15T10:33:48;3.1;3.1;3.1;2.9;;;;216.0;32.0;
78462;SPS30;67756;51.982;5.648;2024-01-15T10:36:17;3.7;3.7;3.7;3.4;;;;213.0;35.0;
78462;SPS30;67756;51.982;5.648;2024-01-15T10:38:46;3.1;3.1;3.0;2.9;;;;191.0;45.0;
78462;SPS30;67756;51.982;5.648;2024-01-15T10:41:15;3.5;3.5;3.4;3.2;;;;165.0;69.0;
78462;SPS30;67756;51.982;5.648;2024-01-15T10:43:45;3.5;3.5;3.4;3.3;;;;148.0;86.0;
78462;SPS30;67756;51.982;5.648;2024-01-15T10:46:14;3.1;3.1;3.1;2.9;;;;147.0;78.0;
78462;SPS30;67756;51.982;5.648;2024-01-15T10:48:43;2.9;2.9;2.9;2.7;;;;126.0;73.0;
78462;SPS30;67756;51.982;5.648;2024-01-15T10:51:12;3.2;3.2;3.2;3.0;;;;107.0;76.0;
78462;SPS30;67756;51.982;5.648;2024-01-15T10:53:41;2.9;2.8;2.8;2.7;;;;92.0;74.0;
78462;SPS30;67756;51.982;5.648;2024-01-15T10:56:11;2.4;2.4;2.4;2.3;;;;80.0;74.0;
78462;SPS30;67756;51.982;5.648;2024-01-15T10:58:41;2.2;2.2;2.2;2.0;;;;75.0;77.0;
78462;SPS30;67756;51.982;5.648;2024-01-15T11:01:11;2.7;2.7;2.6;2.5;;;;74.0;69.0;
78462;SPS30;67756;51.982;5.648;2024-01-15T11:03:41;2.4;2.4;2.4;2.2;;;;74.0;63.0;
78462;SPS30;67756;51.982;5.648;2024-01-15T11:06:17;2.5;2.5;2.4;2.3;;;;73.0;61.0;
78462;SPS30;67756;51.982;5.648;2024-01-15T11:08:48;2.4;2.3;2.3;2.2;;;;72.0;64.0;
78462;SPS30;67756;51.982;5.648;2024-01-15T11:11:18;2.4;2.3;2.3;2.2;;;;72.0;69.0;
78462;SPS30;67756;51.982;5.648;2024-01-15T11:13:49;2.5;2.5;2.5;2.3;;;;70.0;77.0;
78462;SPS30;67756;51.982;5.648;2024-01-15T11:16:18;3.0;3.0;3.0;2.8;;;;68.0;84.0;
78462;SPS30;67756;51.982;5.648;2024-01-15T11:19:02;4.8;4.8;4.7;4.4;;;;54.0;121.0;
78462;SPS30;67756;51.982;5.648;2024-01-15T11:21:34;2.9;2.9;2.8;2.6;;;;49.0;132.0;
78462;SPS30;67756;51.982;5.648;2024-01-15T11:24:11;2.1;2.0;2.0;1.8;;;;52.0;108.0;
78462;SPS30;67756;51.982;5.648;2024-01-15T11:28:48;1.8;1.8;1.6;1.4;;;;55.0;45.0;
78462;SPS30;67756;51.982;5.648;2024-01-15T11:31:17;1.8;1.7;1.5;1.3;;;;57.0;35.0;
78462;SPS30;67756;51.982;5.648;2024-01-15T11:33:49;2.1;2.0;1.7;1.4;;;;58.0;28.0;
78462;SPS30;67756;51.982;5.648;2024-01-15T11:36:18;2.0;1.8;1.6;1.2;;;;59.0;24.0;
78462;SPS30;67756;51.982;5.648;2024-01-15T11:38:47;2.2;2.1;1.7;1.3;;;;60.0;23.0;
78462;SPS30;67756;51.982;5.648;2024-01-15T11:41:15;2.7;2.5;2.1;1.5;;;;61.0;22.0;
78462;SPS30;67756;51.982;5.648;2024-01-15T11:43:47;2.5;2.3;1.9;1.4;;;;62.0;21.0;
78462;SPS30;67756;51.982;5.648;2024-01-15T11:46:15;2.5;2.3;1.9;1.4;;;;62.0;21.0;
78462;SPS30;67756;51.982;5.648;2024-01-15T11:48:47;2.6;2.4;2.0;1.4;;;;61.0;20.0;
78462;SPS30;67756;51.982;5.648;2024-01-15T11:51:27;3.3;3.0;2.4;1.6;;;;52.0;26.0;
78462;SPS30;67756;51.982;5.648;2024-01-15T11:53:56;3.0;2.7;2.2;1.5;;;;41.0;34.0;
78462;SPS30;67756;51.982;5.648;2024-01-15T11:56:33;2.5;2.3;1.8;1.3;;;;43.0;34.0;
78462;SPS30;67756;51.982;5.648;2024-01-15T11:59:03;2.8;2.6;2.1;1.5;;;;45.0;34.0;
78462;SPS30;67756;51.982;5.648;2024-01-15T12:01:32;1.9;1.8;1.4;1.0;;;;45.0;33.0;
78462;SPS30;67756;51.982;5.648;2024-01-15T12:04:02;2.6;2.4;1.9;1.3;;;;41.0;32.0;
78462;SPS30;67756;51.982;5.648;2024-01-15T12:06:32;2.6;2.4;1.9;1.3;;;;37.0;31.0;